createdAt,value
2023-06-22T00:01:46.077Z,3.70
2023-06-22T00:04:17.174Z,4.50
2023-06-22T00:06:50.878Z,4.60
2023-06-22T00:09:21.825Z,4.50
2023-06-22T00:11:52.746Z,3.80
2023-06-22T00:14:23.699Z,3.30
2023-06-22T00:16:55.935Z,4.50
2023-06-22T00:19:27.118Z,4.40
2023-06-22T00:22:01.624Z,4.50
2023-06-22T00:24:32.516Z,5.00
2023-06-22T00:27:03.703Z,4.80
2023-06-22T00:29:34.862Z,4.40
2023-06-22T00:32:06.132Z,4.60
2023-06-22T00:34:37.035Z,4.80
2023-06-22T00:37:12.660Z,6.00
2023-06-22T00:39:43.718Z,5.70
2023-06-22T00:42:14.584Z,6.10
2023-06-22T00:44:46.092Z,5.30
2023-06-22T00:47:18.320Z,6.80
2023-06-22T00:49:52.309Z,7.10
2023-06-22T00:52:30.214Z,6.40
2023-06-22T00:55:02.924Z,5.90
2023-06-22T00:57:38.867Z,5.60
2023-06-22T01:00:20.995Z,7.10
2023-06-22T01:02:56.573Z,5.80
2023-06-22T01:05:31.610Z,6.50
2023-06-22T01:08:24.341Z,6.20
2023-06-22T01:11:02.071Z,7.40
2023-06-22T01:13:39.237Z,6.00
2023-06-22T01:16:14.625Z,7.00
2023-06-22T01:18:47.416Z,5.80
2023-06-22T01:21:21.695Z,6.20
2023-06-22T01:24:08.033Z,6.10
2023-06-22T01:26:44.216Z,6.60
2023-06-22T01:29:19.702Z,7.00
2023-06-22T01:31:53.434Z,8.20
2023-06-22T01:34:25.931Z,7.20
2023-06-22T01:36:57.426Z,8.00
2023-06-22T01:39:29.288Z,8.10
2023-06-22T01:42:00.953Z,7.70
2023-06-22T01:44:35.421Z,7.50
2023-06-22T01:47:06.873Z,7.30
2023-06-22T01:49:38.156Z,8.50
2023-06-22T01:52:09.910Z,8.50
2023-06-22T01:54:41.940Z,8.80
2023-06-22T01:57:13.139Z,8.90
2023-06-22T01:59:54.913Z,8.10
2023-06-22T02:02:31.182Z,8.20
2023-06-22T02:05:06.672Z,8.80
2023-06-22T02:07:45.358Z,9.40
2023-06-22T02:10:19.685Z,8.80
2023-06-22T02:12:52.333Z,8.90
2023-06-22T02:15:26.185Z,8.30
2023-06-22T02:17:57.237Z,9.30
2023-06-22T02:20:28.882Z,8.90
2023-06-22T02:23:00.519Z,9.90
2023-06-22T02:25:31.448Z,9.30
2023-06-22T02:28:02.575Z,9.20
2023-06-22T02:30:36.111Z,9.30
2023-06-22T02:33:07.094Z,10.00
2023-06-22T02:35:37.967Z,10.80
2023-06-22T02:38:11.957Z,11.40
2023-06-22T02:40:43.116Z,11.00
2023-06-22T02:43:14.691Z,10.70
2023-06-22T02:45:48.438Z,10.40
2023-06-22T02:48:19.359Z,10.60
2023-06-22T02:50:50.215Z,12.20
2023-06-22T02:53:22.026Z,11.70
2023-06-22T02:55:53.345Z,11.80
2023-06-22T02:58:25.476Z,12.00
2023-06-22T03:00:59.068Z,11.90
2023-06-22T03:03:30.192Z,11.50
2023-06-22T03:06:02.114Z,12.70
2023-06-22T03:08:33.290Z,12.60
2023-06-22T03:11:04.299Z,12.80
2023-06-22T03:13:35.194Z,12.80
2023-06-22T03:16:08.973Z,13.10
2023-06-22T03:18:39.905Z,13.20
2023-06-22T03:21:10.914Z,12.10
2023-06-22T03:23:42.316Z,12.00
2023-06-22T03:26:14.178Z,12.90
2023-06-22T03:28:45.071Z,12.60
2023-06-22T03:31:22.882Z,13.10
2023-06-22T03:33:55.061Z,13.10
2023-06-22T03:36:26.211Z,13.10
2023-06-22T03:38:57.280Z,13.10
2023-06-22T03:41:28.487Z,13.10
2023-06-22T03:43:59.510Z,13.10
2023-06-22T03:46:33.128Z,13.10
2023-06-22T03:49:05.563Z,13.20
2023-06-22T03:51:37.008Z,13.10
2023-06-22T03:54:07.977Z,14.10
2023-06-22T03:56:39.592Z,13.40
2023-06-22T03:59:11.100Z,13.10
2023-06-22T04:01:44.685Z,13.30
2023-06-22T04:04:15.815Z,13.20
2023-06-22T04:06:47.063Z,13.00
2023-06-22T04:09:18.239Z,13.10
2023-06-22T04:11:49.208Z,13.10
2023-06-22T04:14:20.168Z,13.10
2023-06-22T04:16:53.676Z,13.20
2023-06-22T04:19:24.727Z,13.20
2023-06-22T04:21:55.736Z,13.30
2023-06-22T04:24:26.708Z,13.00
2023-06-22T04:26:57.635Z,13.10
2023-06-22T04:29:30.180Z,13.10
2023-06-22T04:32:04.300Z,13.10
2023-06-22T04:34:35.511Z,13.10
2023-06-22T04:37:06.837Z,12.40
2023-06-22T04:39:37.757Z,12.70
2023-06-22T04:42:09.789Z,12.20
2023-06-22T04:44:41.229Z,11.60
2023-06-22T04:47:14.765Z,13.00
2023-06-22T04:49:45.672Z,13.10
2023-06-22T04:52:21.455Z,13.00
2023-06-22T04:54:56.852Z,13.00
2023-06-22T04:57:33.865Z,13.10
2023-06-22T05:00:13.602Z,12.40
2023-06-22T05:02:51.816Z,12.90
2023-06-22T05:05:38.076Z,12.30
2023-06-22T05:08:16.107Z,11.40
2023-06-22T05:11:04.360Z,11.60
2023-06-22T05:13:36.783Z,11.70
2023-06-22T05:16:08.422Z,10.60
2023-06-22T05:18:43.105Z,11.60
2023-06-22T05:21:14.099Z,10.50
2023-06-22T05:23:45.016Z,10.40
2023-06-22T05:26:15.943Z,10.80
2023-06-22T05:28:48.018Z,10.40
2023-06-22T05:31:20.962Z,10.80
2023-06-22T05:33:57.086Z,11.60
2023-06-22T05:36:28.480Z,10.40
2023-06-22T05:39:01.182Z,10.40
2023-06-22T05:41:32.119Z,10.50
2023-06-22T05:44:03.309Z,10.20
2023-06-22T05:46:34.281Z,10.60
2023-06-22T05:49:08.089Z,9.50
2023-06-22T05:51:39.011Z,9.70
2023-06-22T05:54:10.298Z,10.30
2023-06-22T05:56:41.491Z,10.10
2023-06-22T05:59:13.428Z,9.70
2023-06-22T06:01:44.399Z,7.80
2023-06-22T06:04:18.042Z,8.30
2023-06-22T06:06:52.362Z,7.70
2023-06-22T06:09:23.365Z,8.30
2023-06-22T06:11:54.406Z,7.30
2023-06-22T06:14:25.310Z,7.60
2023-06-22T06:16:56.253Z,7.50
2023-06-22T06:19:29.784Z,7.60
2023-06-22T06:22:01.510Z,8.50
2023-06-22T06:24:32.423Z,7.40
2023-06-22T06:27:05.969Z,8.00
2023-06-22T06:29:36.859Z,8.50
2023-06-22T06:32:08.507Z,7.50
2023-06-22T06:34:42.098Z,7.70
2023-06-22T06:37:13.049Z,7.70
2023-06-22T06:39:44.776Z,7.70
2023-06-22T06:42:15.984Z,8.00
2023-06-22T06:44:46.920Z,8.40
2023-06-22T06:47:18.174Z,8.80
2023-06-22T06:49:51.983Z,7.70
2023-06-22T06:52:23.065Z,9.60
2023-06-22T06:54:54.712Z,8.20
2023-06-22T06:57:29.969Z,8.30
2023-06-22T07:00:01.314Z,8.10
2023-06-22T07:02:32.905Z,7.50
2023-06-22T07:05:07.524Z,8.10
2023-06-22T07:07:39.157Z,8.80
2023-06-22T07:10:11.529Z,8.70
2023-06-22T07:12:42.962Z,8.80
2023-06-22T07:15:15.403Z,9.70
2023-06-22T07:17:46.384Z,9.50
2023-06-22T07:20:21.000Z,10.00
2023-06-22T07:22:52.185Z,10.30
2023-06-22T07:25:23.537Z,10.50
2023-06-22T07:28:03.747Z,11.30
2023-06-22T07:30:36.244Z,11.30
2023-06-22T07:33:10.092Z,11.40
2023-06-22T07:35:43.894Z,11.00
2023-06-22T07:38:16.030Z,11.50
2023-06-22T07:40:47.771Z,11.60
2023-06-22T07:43:18.691Z,11.50
2023-06-22T07:45:53.811Z,12.30
2023-06-22T07:48:25.428Z,11.80
2023-06-22T07:50:59.508Z,12.40
2023-06-22T07:53:34.726Z,13.10
2023-06-22T07:56:09.016Z,13.80
2023-06-22T07:58:46.082Z,14.00
2023-06-22T08:01:22.021Z,15.80
2023-06-22T08:03:55.981Z,15.70
2023-06-22T08:06:30.099Z,15.70
2023-06-22T08:09:01.378Z,16.90
2023-06-22T08:11:32.817Z,18.10
2023-06-22T08:14:04.207Z,15.90
2023-06-22T08:16:38.291Z,18.80
2023-06-22T08:19:09.337Z,17.50
2023-06-22T08:21:44.489Z,17.20
2023-06-22T08:24:23.385Z,14.60
2023-06-22T08:26:55.997Z,15.50
2023-06-22T08:29:27.041Z,16.90
2023-06-22T08:32:02.435Z,15.80
2023-06-22T08:34:55.371Z,15.40
2023-06-22T08:37:41.334Z,15.80
2023-06-22T08:40:14.541Z,15.80
2023-06-22T08:42:45.609Z,15.20
2023-06-22T08:45:18.016Z,12.50
2023-06-22T08:47:49.244Z,12.80
2023-06-22T08:50:20.208Z,11.20
2023-06-22T08:52:53.901Z,9.80
2023-06-22T08:55:24.775Z,10.60
2023-06-22T08:57:56.078Z,9.20
2023-06-22T09:00:26.966Z,8.40
2023-06-22T09:03:00.425Z,8.10
2023-06-22T09:05:32.211Z,7.30
2023-06-22T09:08:06.167Z,6.50
2023-06-22T09:10:37.071Z,6.60
2023-06-22T09:13:08.024Z,6.70
2023-06-22T09:15:39.024Z,3.90
2023-06-22T09:18:10.130Z,4.20
2023-06-22T09:20:41.044Z,3.50
2023-06-22T09:23:14.476Z,2.50
2023-06-22T09:25:45.453Z,1.60
2023-06-22T09:28:16.451Z,1.00
2023-06-22T09:30:47.702Z,1.00
2023-06-22T09:33:20.977Z,1.00
2023-06-22T09:35:53.086Z,1.00
2023-06-22T09:38:27.029Z,1.00
2023-06-22T09:40:57.921Z,1.00
2023-06-22T09:43:28.813Z,1.00
2023-06-22T09:45:59.769Z,1.00
2023-06-22T09:48:30.733Z,1.00
2023-06-22T09:51:01.824Z,1.00
2023-06-22T09:53:35.860Z,1.00
2023-06-22T09:56:07.472Z,1.00
2023-06-22T09:58:38.385Z,1.00
2023-06-22T10:01:09.312Z,1.00
2023-06-22T10:03:40.620Z,1.00
2023-06-22T10:06:12.261Z,1.00
2023-06-22T10:08:45.774Z,1.00
2023-06-22T10:11:16.784Z,1.00
2023-06-22T10:13:47.808Z,1.00
2023-06-22T10:16:18.807Z,1.00
2023-06-22T10:18:49.709Z,1.00
2023-06-22T10:21:20.589Z,1.00
2023-06-22T10:23:54.181Z,1.00
2023-06-22T10:26:25.112Z,1.00
2023-06-22T10:29:14.976Z,1.00
2023-06-22T10:31:46.986Z,1.00
2023-06-22T10:34:17.978Z,1.00
2023-06-22T10:36:50.134Z,1.00
2023-06-22T10:39:23.655Z,1.00
2023-06-22T10:41:54.552Z,1.00
2023-06-22T10:44:25.478Z,1.00
2023-06-22T10:46:58.351Z,1.00
2023-06-22T10:49:30.727Z,1.00
2023-06-22T10:52:01.611Z,1.00
2023-06-22T10:54:36.187Z,1.00
2023-06-22T10:57:07.727Z,1.00
2023-06-22T10:59:38.657Z,1.00
2023-06-22T11:02:10.129Z,1.00
2023-06-22T11:04:41.152Z,1.00
2023-06-22T11:07:13.273Z,1.00
2023-06-22T11:09:47.414Z,1.00
2023-06-22T11:12:19.026Z,1.00
2023-06-22T11:14:51.441Z,1.00
2023-06-22T11:17:22.768Z,1.00
2023-06-22T11:19:54.530Z,1.00
2023-06-22T11:22:25.490Z,1.00
2023-06-22T11:24:58.975Z,1.00
2023-06-22T11:27:29.867Z,1.00
2023-06-22T11:30:00.870Z,1.00
2023-06-22T11:32:31.958Z,1.00
2023-06-22T11:35:02.987Z,3.40
2023-06-22T11:37:34.132Z,3.50
2023-06-22T11:40:10.367Z,7.10
2023-06-22T11:42:41.426Z,9.10
2023-06-22T11:45:12.790Z,12.30
2023-06-22T11:47:43.752Z,14.20
2023-06-22T11:50:14.915Z,15.40
2023-06-22T11:52:46.015Z,16.90
2023-06-22T11:55:22.601Z,18.10
2023-06-22T11:58:01.778Z,19.10
2023-06-22T12:00:35.800Z,21.00
2023-06-22T12:03:13.275Z,24.70
2023-06-22T12:05:44.876Z,28.10
2023-06-22T12:08:15.899Z,27.40
2023-06-22T12:10:50.452Z,32.60
2023-06-22T12:13:21.752Z,33.90
2023-06-22T12:15:53.505Z,35.80
2023-06-22T12:18:24.534Z,37.00
2023-06-22T12:20:55.418Z,40.90
2023-06-22T12:23:26.364Z,42.70
2023-06-22T12:26:00.846Z,41.60
2023-06-22T12:28:31.799Z,49.30
2023-06-22T12:31:02.970Z,61.40
2023-06-22T12:33:34.335Z,90.20
2023-06-22T12:36:06.222Z,81.00
2023-06-22T12:38:37.427Z,99.90
2023-06-22T12:41:10.918Z,99.90
2023-06-22T12:43:41.833Z,99.90
2023-06-22T12:46:12.885Z,99.90
2023-06-22T12:48:44.569Z,99.90
2023-06-22T12:51:15.641Z,99.90
2023-06-22T12:53:46.752Z,99.90
2023-06-22T12:56:20.303Z,99.90
2023-06-22T12:58:51.606Z,99.90
2023-06-22T13:01:23.584Z,99.90
2023-06-22T13:03:54.823Z,99.90
2023-06-22T13:06:25.793Z,99.90
2023-06-22T13:09:19.634Z,99.90
2023-06-22T13:11:50.447Z,99.90
2023-06-22T13:14:21.342Z,99.90
2023-06-22T13:16:52.262Z,99.90
2023-06-22T13:19:23.172Z,99.90
2023-06-22T13:21:54.339Z,99.90
2023-06-22T13:24:25.273Z,99.90
2023-06-22T13:26:58.883Z,99.90
2023-06-22T13:29:29.832Z,99.90
2023-06-22T13:32:01.003Z,99.90
2023-06-22T13:34:31.931Z,99.90
2023-06-22T13:37:02.826Z,99.90
2023-06-22T13:39:33.814Z,99.90
2023-06-22T13:42:07.951Z,99.90
2023-06-22T13:44:38.876Z,99.90
2023-06-22T13:47:10.410Z,99.90
2023-06-22T13:49:41.880Z,99.90
2023-06-22T13:52:14.123Z,99.90
2023-06-22T13:54:45.111Z,99.90
2023-06-22T13:57:18.789Z,99.90
2023-06-22T13:59:49.825Z,99.90
2023-06-22T14:02:21.114Z,99.90
2023-06-22T14:04:52.097Z,99.90
2023-06-22T14:07:23.645Z,99.90
2023-06-22T14:09:54.630Z,99.90
2023-06-22T14:12:29.049Z,99.90
2023-06-22T14:14:59.962Z,99.90
2023-06-22T14:17:30.906Z,99.90
2023-06-22T14:20:01.989Z,99.90
2023-06-22T14:22:33.166Z,99.90
2023-06-22T14:25:04.214Z,99.90
2023-06-22T14:27:37.748Z,99.90
2023-06-22T14:30:10.376Z,99.90
2023-06-22T14:32:41.336Z,99.90
2023-06-22T14:35:12.760Z,99.90
2023-06-22T14:37:43.802Z,99.90
2023-06-22T14:40:18.238Z,99.90
2023-06-22T14:42:58.419Z,99.90
2023-06-22T14:45:32.101Z,99.90
2023-06-22T14:48:08.774Z,99.90
2023-06-22T14:50:40.833Z,99.90
2023-06-22T14:53:11.695Z,99.90
2023-06-22T14:55:42.613Z,99.90
2023-06-22T14:58:16.775Z,99.90
2023-06-22T15:00:47.830Z,99.90
2023-06-22T15:03:22.588Z,99.90
2023-06-22T15:05:54.222Z,99.90
2023-06-22T15:08:25.484Z,99.90
2023-06-22T15:10:56.645Z,99.90
2023-06-22T15:13:31.254Z,99.90
2023-06-22T15:16:02.428Z,99.90
2023-06-22T15:18:34.831Z,99.90
2023-06-22T15:21:06.594Z,99.90
2023-06-22T15:23:38.081Z,99.90
2023-06-22T15:26:11.323Z,99.90
2023-06-22T15:28:44.875Z,99.90
2023-06-22T15:31:16.027Z,99.90
2023-06-22T15:33:47.030Z,99.90
2023-06-22T15:36:19.403Z,99.90
2023-06-22T15:38:50.346Z,99.90
2023-06-22T15:41:21.403Z,99.90
2023-06-22T15:43:55.031Z,99.90
2023-06-22T15:46:25.967Z,99.90
2023-06-22T15:48:57.069Z,99.90
2023-06-22T15:51:29.937Z,99.90
2023-06-22T15:54:01.030Z,99.90
2023-06-22T15:56:31.921Z,99.90
2023-06-22T15:59:05.638Z,99.90
2023-06-22T16:01:37.083Z,99.90
2023-06-22T16:04:08.434Z,99.90
2023-06-22T16:06:39.845Z,99.90
2023-06-22T16:09:10.709Z,99.90
2023-06-22T16:11:41.641Z,99.90
2023-06-22T16:14:15.246Z,99.90
2023-06-22T16:16:46.269Z,99.90
2023-06-22T16:19:17.222Z,99.90
2023-06-22T16:21:48.224Z,99.90
2023-06-22T16:24:22.111Z,99.90
2023-06-22T16:26:53.322Z,99.90
2023-06-22T16:29:27.006Z,99.90
2023-06-22T16:31:58.035Z,99.90
2023-06-22T16:34:29.134Z,99.90
2023-06-22T16:37:00.028Z,99.90
2023-06-22T16:39:30.969Z,99.90
2023-06-22T16:42:02.997Z,99.90
2023-06-22T16:44:36.516Z,99.90
2023-06-22T16:47:07.988Z,99.90
2023-06-22T16:49:39.627Z,99.90
2023-06-22T16:52:11.951Z,99.90
2023-06-22T16:54:52.966Z,99.90
2023-06-22T16:57:30.704Z,99.90
2023-06-22T17:00:05.769Z,99.90
2023-06-22T17:02:38.868Z,99.90
2023-06-22T17:05:11.188Z,99.90
2023-06-22T17:07:48.742Z,99.90
2023-06-22T17:10:20.480Z,99.90
2023-06-22T17:12:54.093Z,99.90
2023-06-22T17:15:31.667Z,99.90
2023-06-22T17:18:03.531Z,99.90
2023-06-22T17:20:34.500Z,99.90
2023-06-22T17:23:05.463Z,99.90
2023-06-22T17:25:38.600Z,99.90
2023-06-22T17:28:09.513Z,99.90
2023-06-22T17:30:43.333Z,99.90
2023-06-22T17:33:20.202Z,99.90
2023-06-22T17:35:55.505Z,99.90
2023-06-22T17:38:27.574Z,99.90
2023-06-22T17:41:07.350Z,99.90
2023-06-22T17:43:51.378Z,99.90
2023-06-22T17:46:27.107Z,99.90
2023-06-22T17:48:58.239Z,99.90
2023-06-22T17:51:29.176Z,99.90
2023-06-22T17:54:00.528Z,99.90
2023-06-22T17:56:31.705Z,99.90
2023-06-22T17:59:03.277Z,99.90
2023-06-22T18:01:38.931Z,99.90
2023-06-22T18:04:11.472Z,99.90
2023-06-22T18:06:44.165Z,99.90
2023-06-22T18:09:16.926Z,99.90
2023-06-22T18:11:49.189Z,99.90
2023-06-22T18:14:21.382Z,99.90
2023-06-22T18:16:55.144Z,99.90
2023-06-22T18:19:27.019Z,99.90
2023-06-22T18:21:57.935Z,99.90
2023-06-22T18:24:29.203Z,99.90
2023-06-22T18:27:00.938Z,99.90
2023-06-22T18:29:33.012Z,99.90
2023-06-22T18:32:06.983Z,99.90
2023-06-22T18:34:39.587Z,99.90
2023-06-22T18:37:14.091Z,99.90
2023-06-22T18:39:49.549Z,99.90
2023-06-22T18:42:20.870Z,99.90
2023-06-22T18:44:57.669Z,99.90
2023-06-22T18:50:59.479Z,99.90
2023-06-22T18:53:36.523Z,99.90
2023-06-22T18:56:17.643Z,99.90
2023-06-22T18:59:01.012Z,99.90
2023-06-22T19:01:35.946Z,99.90
2023-06-22T19:04:20.389Z,99.90
2023-06-22T19:07:01.782Z,99.90
2023-06-22T19:09:32.938Z,99.90
2023-06-22T19:12:23.968Z,99.90
2023-06-22T19:15:13.972Z,99.90
2023-06-22T19:17:46.923Z,99.90
2023-06-22T19:20:22.825Z,99.90
2023-06-22T19:22:59.324Z,99.90
2023-06-22T19:25:34.983Z,99.90
2023-06-22T19:28:06.477Z,99.90
2023-06-22T19:30:38.039Z,99.90
2023-06-22T19:33:10.448Z,99.90
2023-06-22T19:35:44.693Z,99.90
2023-06-22T19:38:18.856Z,99.90
2023-06-22T19:40:50.064Z,99.90
2023-06-22T19:43:21.354Z,99.90
2023-06-22T19:46:08.475Z,99.90
2023-06-22T19:48:44.624Z,99.90
2023-06-22T19:51:24.366Z,99.90
2023-06-22T19:53:55.393Z,99.90
2023-06-22T19:56:26.463Z,99.90
2023-06-22T19:58:57.371Z,99.90
2023-06-22T20:01:29.821Z,99.90
2023-06-22T20:04:00.835Z,99.90
2023-06-22T20:07:05.864Z,99.90
2023-06-22T20:10:16.170Z,99.90
2023-06-22T20:12:53.196Z,99.90
2023-06-22T20:15:25.497Z,99.90
2023-06-22T20:18:01.114Z,99.90
2023-06-22T20:20:36.821Z,99.90
2023-06-22T20:23:11.482Z,99.90
2023-06-22T20:25:46.319Z,99.90
2023-06-22T20:28:18.463Z,99.90
2023-06-22T20:31:11.224Z,99.90
2023-06-22T20:33:42.761Z,99.90
2023-06-22T20:36:18.588Z,99.90
2023-06-22T20:38:52.783Z,99.90
2023-06-22T20:41:26.401Z,99.90
2023-06-22T20:44:03.680Z,99.90
2023-06-22T20:46:38.265Z,99.90
2023-06-22T20:49:09.846Z,99.90
2023-06-22T20:51:41.212Z,99.90
2023-06-22T20:54:19.184Z,99.90
2023-06-22T20:56:53.840Z,99.90
2023-06-22T20:59:27.868Z,99.90
2023-06-22T21:02:00.267Z,99.90
2023-06-22T21:04:31.284Z,99.90
2023-06-22T21:07:02.180Z,99.90
2023-06-22T21:09:46.631Z,99.90
2023-06-22T21:12:22.900Z,99.90
2023-06-22T21:14:53.823Z,99.90
2023-06-22T21:17:26.881Z,99.90
2023-06-22T21:19:58.084Z,99.90
2023-06-22T21:22:30.135Z,99.90
2023-06-22T21:25:12.224Z,99.90
2023-06-22T21:27:45.073Z,99.90
2023-06-22T21:30:17.501Z,99.90
2023-06-22T21:32:48.716Z,99.90
2023-06-22T21:35:19.674Z,99.90
2023-06-22T21:37:50.674Z,99.90
2023-06-22T21:40:24.207Z,99.90
2023-06-22T21:42:58.905Z,99.90
2023-06-22T21:45:31.019Z,99.90
2023-06-22T21:48:02.213Z,99.90
2023-06-22T21:50:33.123Z,99.90
2023-06-22T21:53:04.166Z,99.90
2023-06-22T21:55:37.600Z,99.90
2023-06-22T21:58:08.619Z,99.90
2023-06-22T22:00:39.536Z,99.90
2023-06-22T22:03:10.641Z,99.90
2023-06-22T22:05:41.828Z,99.90
2023-06-22T22:08:12.746Z,99.90
2023-06-22T22:10:46.195Z,99.90
2023-06-22T22:13:17.257Z,99.90
2023-06-22T22:15:50.198Z,99.90
2023-06-22T22:18:22.947Z,99.90
2023-06-22T22:20:53.785Z,99.90
2023-06-22T22:23:26.834Z,99.90
2023-06-22T22:26:00.498Z,99.90
2023-06-22T22:28:31.402Z,99.90
2023-06-22T22:31:03.181Z,99.90
2023-06-22T22:33:37.958Z,99.90
2023-06-22T22:36:10.826Z,99.90
2023-06-22T22:38:43.870Z,99.90
2023-06-22T22:41:17.361Z,99.90
2023-06-22T22:43:48.246Z,99.90
2023-06-22T22:46:19.234Z,99.90
2023-06-22T22:48:50.320Z,99.90
2023-06-22T22:51:21.335Z,99.90
2023-06-22T22:53:54.465Z,99.90
2023-06-22T22:56:28.345Z,99.90
2023-06-22T22:58:59.255Z,99.90
2023-06-22T23:01:30.395Z,99.90
2023-06-22T23:04:01.512Z,99.90
2023-06-22T23:06:32.808Z,99.90
2023-06-22T23:09:03.737Z,99.90
2023-06-22T23:11:37.274Z,99.90
2023-06-22T23:14:08.143Z,99.90
2023-06-22T23:16:39.490Z,99.90
2023-06-22T23:19:11.573Z,99.90
2023-06-22T23:21:42.579Z,99.90
2023-06-22T23:24:13.596Z,99.90
2023-06-22T23:26:56.149Z,99.90
2023-06-22T23:29:27.198Z,99.90
2023-06-22T23:31:58.430Z,99.90
2023-06-22T23:34:30.397Z,99.90
2023-06-22T23:37:02.185Z,99.90
2023-06-22T23:39:33.301Z,99.90
2023-06-22T23:42:07.297Z,99.90
2023-06-22T23:44:38.154Z,99.90
2023-06-22T23:47:09.732Z,99.90
2023-06-22T23:49:40.680Z,99.90
2023-06-22T23:52:11.805Z,99.90
2023-06-22T23:54:42.703Z,99.90
2023-06-22T23:57:16.210Z,99.90
2023-06-22T23:59:51.820Z,99.90
